sensor_id;sensor_type;location;lat;lon;timestamp;P1;durP1;ratioP1;P2;durP2;ratioP2
13303;SDS011;6720;51.958;4.540;2023-12-14T00:00:44;14.80;;;13.30;;
13303;SDS011;6720;51.958;4.540;2023-12-14T00:03:10;14.20;;;12.67;;
13303;SDS011;6720;51.958;4.540;2023-12-14T00:05:35;13.87;;;12.37;;
13303;SDS011;6720;51.958;4.540;2023-12-14T00:08:01;13.67;;;12.33;;
13303;SDS011;6720;51.958;4.540;2023-12-14T00:10:26;15.97;;;14.03;;
13303;SDS011;6720;51.958;4.540;2023-12-14T00:12:51;15.20;;;12.70;;
13303;SDS011;6720;51.958;4.540;2023-12-14T00:15:18;16.73;;;13.73;;
13303;SDS011;6720;51.958;4.540;2023-12-14T00:17:43;15.63;;;13.40;;
13303;SDS011;6720;51.958;4.540;2023-12-14T00:20:09;18.57;;;16.10;;
13303;SDS011;6720;51.958;4.540;2023-12-14T00:22:35;14.90;;;13.30;;
13303;SDS011;6720;51.958;4.540;2023-12-14T00:25:03;15.73;;;13.90;;
13303;SDS011;6720;51.958;4.540;2023-12-14T00:27:29;14.40;;;12.80;;
13303;SDS011;6720;51.958;4.540;2023-12-14T00:29:54;16.77;;;14.87;;
13303;SDS011;6720;51.958;4.540;2023-12-14T00:32:19;17.07;;;14.97;;
13303;SDS011;6720;51.958;4.540;2023-12-14T00:34:45;15.23;;;13.63;;
13303;SDS011;6720;51.958;4.540;2023-12-14T00:37:10;13.97;;;12.57;;
13303;SDS011;6720;51.958;4.540;2023-12-14T00:39:36;14.70;;;12.93;;
13303;SDS011;6720;51.958;4.540;2023-12-14T00:42:01;13.83;;;12.33;;
13303;SDS011;6720;51.958;4.540;2023-12-14T00:44:26;15.57;;;13.50;;
13303;SDS011;6720;51.958;4.540;2023-12-14T00:46:52;13.83;;;12.40;;
13303;SDS011;6720;51.958;4.540;2023-12-14T00:49:17;14.70;;;13.13;;
13303;SDS011;6720;51.958;4.540;2023-12-14T00:51:45;16.60;;;13.97;;
13303;SDS011;6720;51.958;4.540;2023-12-14T00:54:10;17.17;;;15.10;;
13303;SDS011;6720;51.958;4.540;2023-12-14T00:56:36;16.27;;;14.50;;
13303;SDS011;6720;51.958;4.540;2023-12-14T00:59:01;14.23;;;12.83;;
13303;SDS011;6720;51.958;4.540;2023-12-14T01:01:27;14.23;;;12.10;;
13303;SDS011;6720;51.958;4.540;2023-12-14T01:03:53;16.90;;;13.80;;
13303;SDS011;6720;51.958;4.540;2023-12-14T01:06:18;14.83;;;13.30;;
13303;SDS011;6720;51.958;4.540;2023-12-14T01:08:43;13.60;;;12.20;;
13303;SDS011;6720;51.958;4.540;2023-12-14T01:11:09;14.20;;;12.37;;
13303;SDS011;6720;51.958;4.540;2023-12-14T01:13:35;14.80;;;12.80;;
13303;SDS011;6720;51.958;4.540;2023-12-14T01:16:01;14.20;;;12.67;;
13303;SDS011;6720;51.958;4.540;2023-12-14T01:18:27;12.17;;;10.93;;
13303;SDS011;6720;51.958;4.540;2023-12-14T01:20:52;13.30;;;11.93;;
13303;SDS011;6720;51.958;4.540;2023-12-14T01:23:18;13.43;;;12.03;;
13303;SDS011;6720;51.958;4.540;2023-12-14T01:25:43;15.03;;;13.43;;
13303;SDS011;6720;51.958;4.540;2023-12-14T01:28:08;13.73;;;12.33;;
13303;SDS011;6720;51.958;4.540;2023-12-14T01:30:34;13.83;;;10.93;;
13303;SDS011;6720;51.958;4.540;2023-12-14T01:32:59;13.10;;;11.80;;
13303;SDS011;6720;51.958;4.540;2023-12-14T01:35:24;12.63;;;11.13;;
13303;SDS011;6720;51.958;4.540;2023-12-14T01:37:50;13.43;;;12.03;;
13303;SDS011;6720;51.958;4.540;2023-12-14T01:40:16;13.07;;;11.70;;
13303;SDS011;6720;51.958;4.540;2023-12-14T01:42:44;14.30;;;11.80;;
13303;SDS011;6720;51.958;4.540;2023-12-14T01:45:10;13.20;;;11.77;;
13303;SDS011;6720;51.958;4.540;2023-12-14T01:47:36;14.20;;;12.37;;
13303;SDS011;6720;51.958;4.540;2023-12-14T01:50:01;15.50;;;13.17;;
13303;SDS011;6720;51.958;4.540;2023-12-14T01:52:27;16.70;;;13.87;;
13303;SDS011;6720;51.958;4.540;2023-12-14T01:54:52;16.83;;;13.63;;
13303;SDS011;6720;51.958;4.540;2023-12-14T01:57:20;18.60;;;14.53;;
13303;SDS011;6720;51.958;4.540;2023-12-14T01:59:45;15.13;;;13.53;;
13303;SDS011;6720;51.958;4.540;2023-12-14T02:02:11;18.10;;;14.80;;
13303;SDS011;6720;51.958;4.540;2023-12-14T02:04:36;20.70;;;15.60;;
13303;SDS011;6720;51.958;4.540;2023-12-14T02:07:02;17.30;;;14.57;;
13303;SDS011;6720;51.958;4.540;2023-12-14T02:09:28;19.47;;;14.57;;
13303;SDS011;6720;51.958;4.540;2023-12-14T02:11:53;19.77;;;15.43;;
13303;SDS011;6720;51.958;4.540;2023-12-14T02:14:21;18.00;;;15.33;;
13303;SDS011;6720;51.958;4.540;2023-12-14T02:16:46;18.47;;;14.67;;
13303;SDS011;6720;51.958;4.540;2023-12-14T02:19:12;21.07;;;14.67;;
13303;SDS011;6720;51.958;4.540;2023-12-14T02:21:37;17.40;;;13.57;;
13303;SDS011;6720;51.958;4.540;2023-12-14T02:24:03;17.97;;;14.50;;
13303;SDS011;6720;51.958;4.540;2023-12-14T02:26:28;18.13;;;15.17;;
13303;SDS011;6720;51.958;4.540;2023-12-14T02:28:54;18.30;;;13.80;;
13303;SDS011;6720;51.958;4.540;2023-12-14T02:31:19;17.83;;;14.53;;
13303;SDS011;6720;51.958;4.540;2023-12-14T02:33:45;19.20;;;14.30;;
13303;SDS011;6720;51.958;4.540;2023-12-14T02:36:10;17.80;;;14.40;;
13303;SDS011;6720;51.958;4.540;2023-12-14T02:38:36;16.47;;;13.57;;
13303;SDS011;6720;51.958;4.540;2023-12-14T02:41:01;21.23;;;13.90;;
13303;SDS011;6720;51.958;4.540;2023-12-14T02:43:27;17.43;;;13.63;;
13303;SDS011;6720;51.958;4.540;2023-12-14T02:45:52;18.37;;;14.07;;
13303;SDS011;6720;51.958;4.540;2023-12-14T02:48:17;16.03;;;13.70;;
13303;SDS011;6720;51.958;4.540;2023-12-14T02:50:43;17.57;;;14.13;;
13303;SDS011;6720;51.958;4.540;2023-12-14T02:53:08;18.50;;;13.20;;
13303;SDS011;6720;51.958;4.540;2023-12-14T02:55:34;17.00;;;12.93;;
13303;SDS011;6720;51.958;4.540;2023-12-14T02:57:59;19.23;;;13.67;;
13303;SDS011;6720;51.958;4.540;2023-12-14T03:00:24;18.00;;;13.33;;
13303;SDS011;6720;51.958;4.540;2023-12-14T03:02:50;18.87;;;13.90;;
13303;SDS011;6720;51.958;4.540;2023-12-14T03:05:15;19.73;;;13.83;;
13303;SDS011;6720;51.958;4.540;2023-12-14T03:07:41;18.27;;;12.93;;
13303;SDS011;6720;51.958;4.540;2023-12-14T03:10:06;19.77;;;13.23;;
13303;SDS011;6720;51.958;4.540;2023-12-14T03:12:32;19.43;;;13.63;;
13303;SDS011;6720;51.958;4.540;2023-12-14T03:14:58;19.70;;;14.30;;
13303;SDS011;6720;51.958;4.540;2023-12-14T03:17:24;18.47;;;13.83;;
13303;SDS011;6720;51.958;4.540;2023-12-14T03:19:50;21.13;;;14.20;;
13303;SDS011;6720;51.958;4.540;2023-12-14T03:22:17;19.00;;;13.60;;
13303;SDS011;6720;51.958;4.540;2023-12-14T03:24:42;17.83;;;13.47;;
13303;SDS011;6720;51.958;4.540;2023-12-14T03:27:07;19.00;;;13.50;;
13303;SDS011;6720;51.958;4.540;2023-12-14T03:29:33;18.33;;;15.17;;
13303;SDS011;6720;51.958;4.540;2023-12-14T03:31:58;18.03;;;12.90;;
13303;SDS011;6720;51.958;4.540;2023-12-14T03:34:24;19.00;;;12.60;;
13303;SDS011;6720;51.958;4.540;2023-12-14T03:37:01;19.07;;;13.77;;
13303;SDS011;6720;51.958;4.540;2023-12-14T03:40:09;17.00;;;13.50;;
13303;SDS011;6720;51.958;4.540;2023-12-14T03:43:06;18.00;;;12.23;;
13303;SDS011;6720;51.958;4.540;2023-12-14T03:46:05;15.77;;;12.00;;
13303;SDS011;6720;51.958;4.540;2023-12-14T03:49:02;22.43;;;13.93;;
13303;SDS011;6720;51.958;4.540;2023-12-14T03:51:48;15.20;;;12.03;;
13303;SDS011;6720;51.958;4.540;2023-12-14T03:54:29;18.90;;;12.80;;
13303;SDS011;6720;51.958;4.540;2023-12-14T03:57:28;19.83;;;12.23;;
13303;SDS011;6720;51.958;4.540;2023-12-14T04:00:17;16.43;;;11.53;;
13303;SDS011;6720;51.958;4.540;2023-12-14T04:02:42;14.00;;;11.43;;
13303;SDS011;6720;51.958;4.540;2023-12-14T04:05:17;18.63;;;13.70;;
13303;SDS011;6720;51.958;4.540;2023-12-14T04:08:31;14.93;;;11.40;;
13303;SDS011;6720;51.958;4.540;2023-12-14T04:11:21;15.40;;;11.37;;
13303;SDS011;6720;51.958;4.540;2023-12-14T04:13:46;13.53;;;11.80;;
13303;SDS011;6720;51.958;4.540;2023-12-14T04:16:15;16.70;;;10.50;;
13303;SDS011;6720;51.958;4.540;2023-12-14T04:18:40;15.93;;;11.57;;
13303;SDS011;6720;51.958;4.540;2023-12-14T04:21:06;17.60;;;11.53;;
13303;SDS011;6720;51.958;4.540;2023-12-14T04:23:31;15.37;;;10.57;;
13303;SDS011;6720;51.958;4.540;2023-12-14T04:25:57;13.83;;;10.57;;
13303;SDS011;6720;51.958;4.540;2023-12-14T04:28:22;17.77;;;11.57;;
13303;SDS011;6720;51.958;4.540;2023-12-14T04:30:48;16.40;;;11.23;;
13303;SDS011;6720;51.958;4.540;2023-12-14T04:33:13;13.97;;;10.53;;
13303;SDS011;6720;51.958;4.540;2023-12-14T04:35:38;19.80;;;12.43;;
13303;SDS011;6720;51.958;4.540;2023-12-14T04:38:04;12.27;;;9.47;;
13303;SDS011;6720;51.958;4.540;2023-12-14T04:40:29;14.63;;;9.53;;
13303;SDS011;6720;51.958;4.540;2023-12-14T04:42:55;11.37;;;9.53;;
13303;SDS011;6720;51.958;4.540;2023-12-14T04:45:20;12.00;;;9.23;;
13303;SDS011;6720;51.958;4.540;2023-12-14T04:47:46;14.47;;;8.63;;
13303;SDS011;6720;51.958;4.540;2023-12-14T04:50:11;12.63;;;8.50;;
13303;SDS011;6720;51.958;4.540;2023-12-14T04:52:37;15.27;;;9.63;;
13303;SDS011;6720;51.958;4.540;2023-12-14T04:55:02;11.50;;;9.10;;
13303;SDS011;6720;51.958;4.540;2023-12-14T04:57:28;11.83;;;8.20;;
13303;SDS011;6720;51.958;4.540;2023-12-14T04:59:53;10.77;;;8.13;;
13303;SDS011;6720;51.958;4.540;2023-12-14T05:02:18;13.40;;;8.17;;
13303;SDS011;6720;51.958;4.540;2023-12-14T05:04:44;13.13;;;8.23;;
13303;SDS011;6720;51.958;4.540;2023-12-14T05:07:10;13.83;;;8.50;;
13303;SDS011;6720;51.958;4.540;2023-12-14T05:09:35;13.20;;;7.57;;
13303;SDS011;6720;51.958;4.540;2023-12-14T05:12:00;11.40;;;7.90;;
13303;SDS011;6720;51.958;4.540;2023-12-14T05:14:26;10.27;;;7.40;;
13303;SDS011;6720;51.958;4.540;2023-12-14T05:16:53;8.70;;;7.10;;
13303;SDS011;6720;51.958;4.540;2023-12-14T05:19:19;10.70;;;7.20;;
13303;SDS011;6720;51.958;4.540;2023-12-14T05:21:44;11.27;;;7.43;;
13303;SDS011;6720;51.958;4.540;2023-12-14T05:24:10;13.87;;;9.80;;
13303;SDS011;6720;51.958;4.540;2023-12-14T05:26:35;11.57;;;7.17;;
13303;SDS011;6720;51.958;4.540;2023-12-14T05:29:00;10.90;;;7.63;;
13303;SDS011;6720;51.958;4.540;2023-12-14T05:31:26;12.23;;;8.07;;
13303;SDS011;6720;51.958;4.540;2023-12-14T05:33:51;10.57;;;6.90;;
13303;SDS011;6720;51.958;4.540;2023-12-14T05:36:16;11.93;;;7.67;;
13303;SDS011;6720;51.958;4.540;2023-12-14T05:38:42;12.63;;;8.20;;
13303;SDS011;6720;51.958;4.540;2023-12-14T05:41:08;8.77;;;6.93;;
13303;SDS011;6720;51.958;4.540;2023-12-14T05:43:35;16.30;;;10.37;;
13303;SDS011;6720;51.958;4.540;2023-12-14T05:46:01;8.90;;;7.30;;
13303;SDS011;6720;51.958;4.540;2023-12-14T05:48:27;11.27;;;7.07;;
13303;SDS011;6720;51.958;4.540;2023-12-14T05:50:53;11.30;;;7.20;;
13303;SDS011;6720;51.958;4.540;2023-12-14T05:53:19;10.33;;;7.03;;
13303;SDS011;6720;51.958;4.540;2023-12-14T05:55:44;13.83;;;10.10;;
13303;SDS011;6720;51.958;4.540;2023-12-14T05:58:09;11.67;;;7.27;;
13303;SDS011;6720;51.958;4.540;2023-12-14T06:00:35;11.73;;;7.77;;
13303;SDS011;6720;51.958;4.540;2023-12-14T06:03:01;9.33;;;7.03;;
13303;SDS011;6720;51.958;4.540;2023-12-14T06:05:26;10.40;;;7.03;;
13303;SDS011;6720;51.958;4.540;2023-12-14T06:07:52;9.97;;;7.77;;
13303;SDS011;6720;51.958;4.540;2023-12-14T06:10:17;8.93;;;7.07;;
13303;SDS011;6720;51.958;4.540;2023-12-14T06:12:43;10.00;;;7.83;;
13303;SDS011;6720;51.958;4.540;2023-12-14T06:15:08;10.60;;;7.10;;
13303;SDS011;6720;51.958;4.540;2023-12-14T06:17:35;10.00;;;7.33;;
13303;SDS011;6720;51.958;4.540;2023-12-14T06:20:02;8.37;;;7.17;;
13303;SDS011;6720;51.958;4.540;2023-12-14T06:22:29;9.20;;;7.27;;
13303;SDS011;6720;51.958;4.540;2023-12-14T06:24:54;8.83;;;6.33;;
13303;SDS011;6720;51.958;4.540;2023-12-14T06:27:21;7.50;;;6.73;;
13303;SDS011;6720;51.958;4.540;2023-12-14T06:29:51;8.60;;;7.63;;
13303;SDS011;6720;51.958;4.540;2023-12-14T06:32:17;9.43;;;7.47;;
13303;SDS011;6720;51.958;4.540;2023-12-14T06:34:42;7.30;;;6.57;;
13303;SDS011;6720;51.958;4.540;2023-12-14T06:37:07;10.13;;;6.80;;
13303;SDS011;6720;51.958;4.540;2023-12-14T06:39:33;7.33;;;6.30;;
13303;SDS011;6720;51.958;4.540;2023-12-14T06:41:59;7.53;;;6.53;;
13303;SDS011;6720;51.958;4.540;2023-12-14T06:44:24;9.83;;;7.37;;
13303;SDS011;6720;51.958;4.540;2023-12-14T06:46:51;8.97;;;7.30;;
13303;SDS011;6720;51.958;4.540;2023-12-14T06:49:16;7.70;;;6.50;;
13303;SDS011;6720;51.958;4.540;2023-12-14T06:51:42;8.17;;;6.53;;
13303;SDS011;6720;51.958;4.540;2023-12-14T06:54:07;8.07;;;6.93;;
13303;SDS011;6720;51.958;4.540;2023-12-14T06:56:33;9.50;;;7.17;;
13303;SDS011;6720;51.958;4.540;2023-12-14T06:59:01;8.03;;;7.23;;
13303;SDS011;6720;51.958;4.540;2023-12-14T07:01:27;8.50;;;7.70;;
13303;SDS011;6720;51.958;4.540;2023-12-14T07:03:52;12.67;;;8.40;;
13303;SDS011;6720;51.958;4.540;2023-12-14T07:06:18;8.47;;;7.57;;
13303;SDS011;6720;51.958;4.540;2023-12-14T07:08:43;11.83;;;8.20;;
13303;SDS011;6720;51.958;4.540;2023-12-14T07:11:10;13.17;;;10.53;;
13303;SDS011;6720;51.958;4.540;2023-12-14T07:13:36;12.07;;;9.03;;
13303;SDS011;6720;51.958;4.540;2023-12-14T07:16:05;10.37;;;7.77;;
13303;SDS011;6720;51.958;4.540;2023-12-14T07:18:35;10.13;;;7.93;;
13303;SDS011;6720;51.958;4.540;2023-12-14T07:21:04;8.80;;;7.90;;
13303;SDS011;6720;51.958;4.540;2023-12-14T07:23:30;11.00;;;8.33;;
13303;SDS011;6720;51.958;4.540;2023-12-14T07:25:56;13.23;;;9.53;;
13303;SDS011;6720;51.958;4.540;2023-12-14T07:28:22;11.27;;;8.10;;
13303;SDS011;6720;51.958;4.540;2023-12-14T07:30:48;10.17;;;8.13;;
13303;SDS011;6720;51.958;4.540;2023-12-14T07:33:15;11.63;;;8.83;;
13303;SDS011;6720;51.958;4.540;2023-12-14T07:35:41;10.60;;;8.07;;
13303;SDS011;6720;51.958;4.540;2023-12-14T07:38:06;9.87;;;8.03;;
13303;SDS011;6720;51.958;4.540;2023-12-14T07:40:32;10.77;;;8.30;;
13303;SDS011;6720;51.958;4.540;2023-12-14T07:42:57;10.77;;;8.33;;
13303;SDS011;6720;51.958;4.540;2023-12-14T07:45:23;12.23;;;7.93;;
13303;SDS011;6720;51.958;4.540;2023-12-14T07:47:48;11.77;;;8.80;;
13303;SDS011;6720;51.958;4.540;2023-12-14T07:50:14;12.03;;;8.40;;
13303;SDS011;6720;51.958;4.540;2023-12-14T07:52:39;10.87;;;8.50;;
13303;SDS011;6720;51.958;4.540;2023-12-14T07:55:06;11.77;;;8.50;;
13303;SDS011;6720;51.958;4.540;2023-12-14T07:57:32;10.97;;;8.20;;
13303;SDS011;6720;51.958;4.540;2023-12-14T07:59:58;11.63;;;8.70;;
13303;SDS011;6720;51.958;4.540;2023-12-14T08:02:23;11.60;;;9.30;;
13303;SDS011;6720;51.958;4.540;2023-12-14T08:04:49;9.80;;;8.73;;
13303;SDS011;6720;51.958;4.540;2023-12-14T08:07:14;12.53;;;8.63;;
13303;SDS011;6720;51.958;4.540;2023-12-14T08:09:40;11.50;;;9.27;;
13303;SDS011;6720;51.958;4.540;2023-12-14T08:12:05;10.50;;;8.20;;
13303;SDS011;6720;51.958;4.540;2023-12-14T08:14:34;9.30;;;8.23;;
13303;SDS011;6720;51.958;4.540;2023-12-14T08:17:00;11.57;;;9.07;;
13303;SDS011;6720;51.958;4.540;2023-12-14T08:19:26;14.07;;;10.00;;
13303;SDS011;6720;51.958;4.540;2023-12-14T08:21:52;11.73;;;9.07;;
13303;SDS011;6720;51.958;4.540;2023-12-14T08:24:18;10.67;;;8.37;;
13303;SDS011;6720;51.958;4.540;2023-12-14T08:26:43;12.50;;;8.90;;
13303;SDS011;6720;51.958;4.540;2023-12-14T08:29:10;14.40;;;8.93;;
13303;SDS011;6720;51.958;4.540;2023-12-14T08:31:44;13.23;;;8.53;;
13303;SDS011;6720;51.958;4.540;2023-12-14T08:34:10;12.77;;;9.43;;
13303;SDS011;6720;51.958;4.540;2023-12-14T08:36:36;13.30;;;10.17;;
13303;SDS011;6720;51.958;4.540;2023-12-14T08:39:02;10.47;;;9.37;;
13303;SDS011;6720;51.958;4.540;2023-12-14T08:41:28;11.07;;;9.40;;
13303;SDS011;6720;51.958;4.540;2023-12-14T08:43:54;10.30;;;9.30;;
13303;SDS011;6720;51.958;4.540;2023-12-14T08:46:21;13.17;;;9.73;;
13303;SDS011;6720;51.958;4.540;2023-12-14T08:48:47;12.83;;;9.80;;
13303;SDS011;6720;51.958;4.540;2023-12-14T08:51:13;11.17;;;9.57;;
13303;SDS011;6720;51.958;4.540;2023-12-14T08:53:39;11.03;;;9.37;;
13303;SDS011;6720;51.958;4.540;2023-12-14T08:56:04;13.60;;;9.80;;
13303;SDS011;6720;51.958;4.540;2023-12-14T08:58:30;11.70;;;9.77;;
13303;SDS011;6720;51.958;4.540;2023-12-14T09:00:56;11.93;;;10.07;;
13303;SDS011;6720;51.958;4.540;2023-12-14T09:03:22;13.67;;;10.40;;
13303;SDS011;6720;51.958;4.540;2023-12-14T09:05:47;14.00;;;10.40;;
13303;SDS011;6720;51.958;4.540;2023-12-14T09:08:13;15.30;;;11.33;;
13303;SDS011;6720;51.958;4.540;2023-12-14T09:10:39;13.83;;;11.00;;
13303;SDS011;6720;51.958;4.540;2023-12-14T09:13:06;13.80;;;10.97;;
13303;SDS011;6720;51.958;4.540;2023-12-14T09:15:32;12.27;;;11.00;;
13303;SDS011;6720;51.958;4.540;2023-12-14T09:17:58;14.20;;;10.07;;
13303;SDS011;6720;51.958;4.540;2023-12-14T09:20:24;16.53;;;11.10;;
13303;SDS011;6720;51.958;4.540;2023-12-14T09:22:49;12.10;;;10.30;;
13303;SDS011;6720;51.958;4.540;2023-12-14T09:25:15;14.03;;;10.70;;
13303;SDS011;6720;51.958;4.540;2023-12-14T09:27:41;11.70;;;9.63;;
13303;SDS011;6720;51.958;4.540;2023-12-14T09:30:07;11.80;;;10.23;;
13303;SDS011;6720;51.958;4.540;2023-12-14T09:32:33;11.40;;;9.83;;
13303;SDS011;6720;51.958;4.540;2023-12-14T09:34:58;12.60;;;9.83;;
13303;SDS011;6720;51.958;4.540;2023-12-14T09:37:24;13.07;;;10.47;;
13303;SDS011;6720;51.958;4.540;2023-12-14T09:39:49;11.10;;;10.00;;
13303;SDS011;6720;51.958;4.540;2023-12-14T09:42:16;10.27;;;9.23;;
13303;SDS011;6720;51.958;4.540;2023-12-14T09:44:45;15.70;;;10.37;;
13303;SDS011;6720;51.958;4.540;2023-12-14T09:47:14;10.90;;;9.27;;
13303;SDS011;6720;51.958;4.540;2023-12-14T09:49:39;11.10;;;9.80;;
13303;SDS011;6720;51.958;4.540;2023-12-14T09:52:08;11.60;;;9.23;;
13303;SDS011;6720;51.958;4.540;2023-12-14T09:54:34;11.13;;;9.50;;
13303;SDS011;6720;51.958;4.540;2023-12-14T09:56:59;10.70;;;9.60;;
13303;SDS011;6720;51.958;4.540;2023-12-14T09:59:34;12.00;;;9.23;;
13303;SDS011;6720;51.958;4.540;2023-12-14T10:02:16;14.73;;;9.90;;
13303;SDS011;6720;51.958;4.540;2023-12-14T10:04:42;11.93;;;10.73;;
13303;SDS011;6720;51.958;4.540;2023-12-14T10:07:10;14.13;;;10.87;;
13303;SDS011;6720;51.958;4.540;2023-12-14T10:09:36;11.10;;;9.90;;
13303;SDS011;6720;51.958;4.540;2023-12-14T10:12:05;11.50;;;10.30;;
13303;SDS011;6720;51.958;4.540;2023-12-14T10:14:33;13.37;;;9.87;;
13303;SDS011;6720;51.958;4.540;2023-12-14T10:16:59;12.23;;;10.20;;
13303;SDS011;6720;51.958;4.540;2023-12-14T10:19:46;16.33;;;9.87;;
13303;SDS011;6720;51.958;4.540;2023-12-14T10:22:15;12.30;;;9.63;;
13303;SDS011;6720;51.958;4.540;2023-12-14T10:24:43;12.90;;;9.43;;
13303;SDS011;6720;51.958;4.540;2023-12-14T10:27:09;11.47;;;10.30;;
13303;SDS011;6720;51.958;4.540;2023-12-14T10:29:39;10.57;;;8.57;;
13303;SDS011;6720;51.958;4.540;2023-12-14T10:32:05;9.97;;;8.17;;
13303;SDS011;6720;51.958;4.540;2023-12-14T10:34:32;8.80;;;7.90;;
13303;SDS011;6720;51.958;4.540;2023-12-14T10:36:59;8.83;;;7.43;;
13303;SDS011;6720;51.958;4.540;2023-12-14T10:39:25;9.57;;;8.33;;
13303;SDS011;6720;51.958;4.540;2023-12-14T10:41:51;9.40;;;7.07;;
13303;SDS011;6720;51.958;4.540;2023-12-14T10:44:19;8.37;;;7.57;;
13303;SDS011;6720;51.958;4.540;2023-12-14T10:46:50;11.50;;;8.07;;
13303;SDS011;6720;51.958;4.540;2023-12-14T10:49:21;9.37;;;7.87;;
13303;SDS011;6720;51.958;4.540;2023-12-14T10:51:49;8.93;;;8.03;;
13303;SDS011;6720;51.958;4.540;2023-12-14T10:54:15;9.70;;;8.70;;
13303;SDS011;6720;51.958;4.540;2023-12-14T10:56:41;12.63;;;9.70;;
13303;SDS011;6720;51.958;4.540;2023-12-14T10:59:07;10.73;;;9.33;;
13303;SDS011;6720;51.958;4.540;2023-12-14T11:01:32;10.40;;;9.40;;
13303;SDS011;6720;51.958;4.540;2023-12-14T11:04:00;11.03;;;9.73;;
13303;SDS011;6720;51.958;4.540;2023-12-14T11:06:30;11.47;;;10.20;;
13303;SDS011;6720;51.958;4.540;2023-12-14T11:09:01;10.57;;;9.27;;
13303;SDS011;6720;51.958;4.540;2023-12-14T11:11:40;10.47;;;9.40;;
13303;SDS011;6720;51.958;4.540;2023-12-14T11:14:15;11.43;;;9.50;;
13303;SDS011;6720;51.958;4.540;2023-12-14T11:16:43;11.73;;;9.90;;
13303;SDS011;6720;51.958;4.540;2023-12-14T11:21:59;12.57;;;9.80;;
13303;SDS011;6720;51.958;4.540;2023-12-14T11:24:35;13.20;;;10.63;;
13303;SDS011;6720;51.958;4.540;2023-12-14T11:27:06;11.37;;;9.53;;
13303;SDS011;6720;51.958;4.540;2023-12-14T11:29:32;11.43;;;9.87;;
13303;SDS011;6720;51.958;4.540;2023-12-14T11:31:58;12.53;;;9.77;;
13303;SDS011;6720;51.958;4.540;2023-12-14T11:34:24;11.17;;;9.10;;
13303;SDS011;6720;51.958;4.540;2023-12-14T11:36:50;10.23;;;9.13;;
13303;SDS011;6720;51.958;4.540;2023-12-14T11:39:17;12.23;;;9.53;;
13303;SDS011;6720;51.958;4.540;2023-12-14T11:41:42;12.20;;;9.43;;
13303;SDS011;6720;51.958;4.540;2023-12-14T11:44:41;11.70;;;9.60;;
13303;SDS011;6720;51.958;4.540;2023-12-14T11:47:07;14.20;;;10.13;;
13303;SDS011;6720;51.958;4.540;2023-12-14T11:49:33;12.50;;;11.00;;
13303;SDS011;6720;51.958;4.540;2023-12-14T11:52:01;13.43;;;11.20;;
13303;SDS011;6720;51.958;4.540;2023-12-14T11:54:28;13.97;;;11.47;;
13303;SDS011;6720;51.958;4.540;2023-12-14T11:56:54;17.07;;;13.40;;
13303;SDS011;6720;51.958;4.540;2023-12-14T11:59:20;14.47;;;12.97;;
13303;SDS011;6720;51.958;4.540;2023-12-14T12:01:56;16.60;;;13.63;;
13303;SDS011;6720;51.958;4.540;2023-12-14T12:04:26;17.27;;;13.03;;
13303;SDS011;6720;51.958;4.540;2023-12-14T12:06:59;16.37;;;12.53;;
13303;SDS011;6720;51.958;4.540;2023-12-14T12:09:36;15.80;;;13.20;;
13303;SDS011;6720;51.958;4.540;2023-12-14T12:12:06;18.07;;;13.00;;
13303;SDS011;6720;51.958;4.540;2023-12-14T12:14:32;14.97;;;12.83;;
13303;SDS011;6720;51.958;4.540;2023-12-14T12:16:59;14.73;;;12.30;;
13303;SDS011;6720;51.958;4.540;2023-12-14T12:19:24;15.83;;;12.70;;
13303;SDS011;6720;51.958;4.540;2023-12-14T12:21:49;13.70;;;11.97;;
13303;SDS011;6720;51.958;4.540;2023-12-14T12:24:15;13.70;;;10.70;;
13303;SDS011;6720;51.958;4.540;2023-12-14T12:26:40;13.20;;;11.03;;
13303;SDS011;6720;51.958;4.540;2023-12-14T12:29:06;16.37;;;12.13;;
13303;SDS011;6720;51.958;4.540;2023-12-14T12:31:31;14.03;;;11.90;;
13303;SDS011;6720;51.958;4.540;2023-12-14T12:33:58;15.10;;;11.13;;
13303;SDS011;6720;51.958;4.540;2023-12-14T12:36:23;16.30;;;12.20;;
13303;SDS011;6720;51.958;4.540;2023-12-14T12:38:49;14.50;;;11.43;;
13303;SDS011;6720;51.958;4.540;2023-12-14T12:41:14;18.60;;;11.23;;
13303;SDS011;6720;51.958;4.540;2023-12-14T12:43:39;15.80;;;11.33;;
13303;SDS011;6720;51.958;4.540;2023-12-14T12:46:05;16.33;;;11.57;;
13303;SDS011;6720;51.958;4.540;2023-12-14T12:48:30;14.23;;;11.40;;
13303;SDS011;6720;51.958;4.540;2023-12-14T12:50:56;14.60;;;11.13;;
13303;SDS011;6720;51.958;4.540;2023-12-14T12:53:21;14.70;;;11.03;;
13303;SDS011;6720;51.958;4.540;2023-12-14T12:55:46;16.27;;;11.40;;
13303;SDS011;6720;51.958;4.540;2023-12-14T12:58:12;16.90;;;11.67;;
13303;SDS011;6720;51.958;4.540;2023-12-14T13:00:39;15.27;;;11.13;;
13303;SDS011;6720;51.958;4.540;2023-12-14T13:03:05;14.40;;;10.80;;
13303;SDS011;6720;51.958;4.540;2023-12-14T13:05:30;14.03;;;10.80;;
13303;SDS011;6720;51.958;4.540;2023-12-14T13:07:56;16.13;;;10.70;;
13303;SDS011;6720;51.958;4.540;2023-12-14T13:10:22;15.20;;;10.30;;
13303;SDS011;6720;51.958;4.540;2023-12-14T13:12:52;12.70;;;10.37;;
13303;SDS011;6720;51.958;4.540;2023-12-14T13:15:17;12.83;;;10.03;;
13303;SDS011;6720;51.958;4.540;2023-12-14T13:17:44;12.57;;;10.33;;
13303;SDS011;6720;51.958;4.540;2023-12-14T13:20:09;15.20;;;10.00;;
13303;SDS011;6720;51.958;4.540;2023-12-14T13:22:34;13.93;;;10.23;;
13303;SDS011;6720;51.958;4.540;2023-12-14T13:25:00;14.03;;;9.87;;
13303;SDS011;6720;51.958;4.540;2023-12-14T13:27:25;12.80;;;9.53;;
13303;SDS011;6720;51.958;4.540;2023-12-14T13:29:51;15.33;;;10.70;;
13303;SDS011;6720;51.958;4.540;2023-12-14T13:32:16;12.30;;;9.93;;
13303;SDS011;6720;51.958;4.540;2023-12-14T13:34:42;12.63;;;10.20;;
13303;SDS011;6720;51.958;4.540;2023-12-14T13:37:07;10.90;;;9.30;;
13303;SDS011;6720;51.958;4.540;2023-12-14T13:39:34;11.57;;;9.47;;
13303;SDS011;6720;51.958;4.540;2023-12-14T13:42:03;13.00;;;9.33;;
13303;SDS011;6720;51.958;4.540;2023-12-14T13:44:30;15.33;;;9.70;;
13303;SDS011;6720;51.958;4.540;2023-12-14T13:46:56;13.30;;;9.07;;
13303;SDS011;6720;51.958;4.540;2023-12-14T13:49:21;11.30;;;9.60;;
13303;SDS011;6720;51.958;4.540;2023-12-14T13:51:47;15.07;;;10.53;;
13303;SDS011;6720;51.958;4.540;2023-12-14T13:54:12;14.23;;;9.83;;
13303;SDS011;6720;51.958;4.540;2023-12-14T13:56:37;14.37;;;10.60;;
13303;SDS011;6720;51.958;4.540;2023-12-14T13:59:03;17.33;;;10.00;;
13303;SDS011;6720;51.958;4.540;2023-12-14T14:01:28;14.07;;;10.10;;
13303;SDS011;6720;51.958;4.540;2023-12-14T14:03:54;11.87;;;10.17;;
13303;SDS011;6720;51.958;4.540;2023-12-14T14:06:19;15.20;;;10.17;;
13303;SDS011;6720;51.958;4.540;2023-12-14T14:08:45;16.83;;;9.90;;
13303;SDS011;6720;51.958;4.540;2023-12-14T14:11:11;13.43;;;9.50;;
13303;SDS011;6720;51.958;4.540;2023-12-14T14:13:37;14.80;;;10.70;;
13303;SDS011;6720;51.958;4.540;2023-12-14T14:16:03;16.37;;;10.23;;
13303;SDS011;6720;51.958;4.540;2023-12-14T14:18:30;17.67;;;10.60;;
13303;SDS011;6720;51.958;4.540;2023-12-14T14:20:55;11.73;;;9.20;;
13303;SDS011;6720;51.958;4.540;2023-12-14T14:23:21;13.47;;;9.40;;
13303;SDS011;6720;51.958;4.540;2023-12-14T14:25:46;11.63;;;9.30;;
13303;SDS011;6720;51.958;4.540;2023-12-14T14:28:12;13.13;;;10.07;;
13303;SDS011;6720;51.958;4.540;2023-12-14T14:30:37;12.67;;;8.93;;
13303;SDS011;6720;51.958;4.540;2023-12-14T14:33:03;13.27;;;8.97;;
13303;SDS011;6720;51.958;4.540;2023-12-14T14:35:29;11.10;;;9.17;;
13303;SDS011;6720;51.958;4.540;2023-12-14T14:37:54;12.43;;;8.57;;
13303;SDS011;6720;51.958;4.540;2023-12-14T14:40:20;11.67;;;8.83;;
13303;SDS011;6720;51.958;4.540;2023-12-14T14:42:47;14.30;;;9.60;;
13303;SDS011;6720;51.958;4.540;2023-12-14T14:45:12;15.90;;;9.43;;